Time;durP1;ratioP1;P1;durP2;ratioP2;P2;SDS_P1;SDS_P2;PMS_P1;PMS_P2;Temp;Humidity;BMP_temperature;BMP_pressure;BME280_temperature;BME280_humidity;BME280_pressure;Samples;Min_cycle;Max_cycle;Signal;HPM_P1;HPM_P2
2022/09/21 00:01:04;;;;;;;8.35;3.80;;;;;;;;;;5031201;28;20033;-66
2022/09/21 00:03:30;;;;;;;9.02;3.58;;;9.10;99.90;;;;;;5031308;28;20124;-65
2022/09/21 00:06:08;;;;;;;12.07;3.80;;;8.90;99.90;;;;;;5031243;28;20120;-65
2022/09/21 00:08:34;;;;;;;7.50;3.60;;;9.10;99.90;;;;;;5030591;28;20073;-66
2022/09/21 00:11:00;;;;;;;7.82;3.50;;;;;;;;;;5030893;28;20293;-66
2022/09/21 00:13:27;;;;;;;7.65;3.20;;;9.20;99.90;;;;;;5031274;28;20041;-66
2022/09/21 00:15:54;;;;;;;7.25;2.88;;;9.20;99.90;;;;;;5029883;28;20099;-66
2022/09/21 00:18:20;;;;;;;7.80;3.38;;;;;;;;;;5013144;28;20392;-66
2022/09/21 00:20:47;;;;;;;6.55;2.60;;;;;;;;;;5029787;28;20041;-66
2022/09/21 00:23:12;;;;;;;6.53;2.55;;;9.00;99.90;;;;;;5029185;28;20053;-66
2022/09/21 00:25:38;;;;;;;5.97;2.17;;;9.00;99.90;;;;;;5030427;28;20384;-66
2022/09/21 00:28:04;;;;;;;6.82;2.28;;;;;;;;;;5030107;28;20041;-66
2022/09/21 00:30:30;;;;;;;5.72;2.17;;;;;;;;;;5012225;28;20087;-66
2022/09/21 00:32:56;;;;;;;6.03;2.47;;;9.00;99.90;;;;;;5030767;28;20033;-65
2022/09/21 00:35:22;;;;;;;5.53;2.70;;;8.90;99.90;;;;;;5030620;28;20546;-65
2022/09/21 00:37:48;;;;;;;7.75;3.20;;;;;;;;;;5011233;28;20049;-66
2022/09/21 00:40:14;;;;;;;8.90;3.90;;;;;;;;;;5030658;28;20068;-66
2022/09/21 00:42:40;;;;;;;8.30;3.70;;;;;;;;;;5029588;28;20042;-66
2022/09/21 00:45:06;;;;;;;9.00;4.15;;;;;;;;;;5012849;28;20064;-65
2022/09/21 00:47:42;;;;;;;6.65;3.30;;;9.40;99.90;;;;;;5030016;28;20091;-66
2022/09/21 00:50:10;;;;;;;7.53;3.60;;;;;;;;;;5030282;28;20088;-66
2022/09/21 00:52:50;;;;;;;10.15;4.00;;;10.10;99.90;;;;;;5012465;28;20037;-66
2022/09/21 00:55:19;;;;;;;7.35;3.70;;;;;;;;;;5030053;28;20029;-66
2022/09/21 00:57:48;;;;;;;7.03;3.50;;;;;;;;;;5029379;28;20076;-66
2022/09/21 01:00:13;;;;;;;10.68;3.88;;;9.60;99.90;;;;;;5030435;28;20037;-66
2022/09/21 01:02:40;;;;;;;8.23;4.05;;;;;;;;;;5030119;28;20053;-66
2022/09/21 01:05:07;;;;;;;8.15;3.88;;;9.10;99.90;;;;;;5029982;28;20495;-66
2022/09/21 01:07:38;;;;;;;7.75;3.67;;;9.80;99.90;;;;;;5029572;28;20049;-67
2022/09/21 01:10:08;;;;;;;8.52;3.25;;;9.00;99.90;;;;;;5030041;28;20343;-66
2022/09/21 01:12:37;;;;;;;7.45;2.35;;;;;;;;;;5027731;28;20068;-66
2022/09/21 01:15:30;;;;;;;6.57;2.03;;;9.40;99.90;;;;;;5028902;28;20045;-66
2022/09/21 01:17:59;;;;;;;5.47;2.00;;;;;;;;;;5021947;28;20137;-66
2022/09/21 01:20:41;;;;;;;4.70;1.50;;;;;;;;;;5029521;28;20049;-66
2022/09/21 01:23:25;;;;;;;5.10;1.92;;;;;;;;;;5030274;28;20087;-66
2022/09/21 01:26:00;;;;;;;4.78;1.85;;;9.30;99.90;;;;;;5029722;28;20044;-66
2022/09/21 01:28:32;;;;;;;5.25;1.48;;;;;;;;;;5029557;28;20400;-66
2022/09/21 01:30:59;;;;;;;4.72;1.83;;;;;;;;;;5029771;28;20114;-66
2022/09/21 01:33:32;;;;;;;5.72;1.65;;;8.00;99.90;;;;;;5030158;28;20046;-66
2022/09/21 01:36:03;;;;;;;5.38;1.75;;;;;;;;;;5026323;28;20496;-66
2022/09/21 01:38:32;;;;;;;4.72;1.80;;;;;;;;;;5029448;28;20116;-66
2022/09/21 01:41:01;;;;;;;5.03;2.17;;;;;;;;;;5029341;28;20068;-65
2022/09/21 01:43:31;;;;;;;6.60;2.47;;;;;;;;;;5030456;28;20500;-65
2022/09/21 01:46:00;;;;;;;5.10;2.35;;;;;;;;;;5020796;28;20485;-65
2022/09/21 01:48:27;;;;;;;6.53;2.45;;;;;;;;;;5011607;28;20106;-66
2022/09/21 01:50:55;;;;;;;6.25;2.50;;;;;;;;;;5011691;28;20470;-66
2022/09/21 01:53:28;;;;;;;7.07;2.63;;;;;;;;;;5026947;28;20069;-66
2022/09/21 01:56:14;;;;;;;5.03;2.20;;;8.00;99.90;;;;;;5025399;28;20029;-65
2022/09/21 01:59:14;;;;;;;6.78;2.92;;;8.30;99.90;;;;;;5029306;28;20087;-64
2022/09/21 02:01:46;;;;;;;9.25;3.58;;;;;;;;;;5028588;28;20049;-64
2022/09/21 02:04:12;;;;;;;9.18;3.53;;;8.40;99.90;;;;;;5029445;28;20045;-64
2022/09/21 02:06:42;;;;;;;7.90;3.53;;;;;;;;;;5029708;28;20044;-64
2022/09/21 02:09:09;;;;;;;7.20;3.17;;;;;;;;;;5031190;28;20076;-64
2022/09/21 02:11:42;;;;;;;9.43;3.90;;;;;;;;;;5033208;28;20045;-64
2022/09/21 02:14:14;;;;;;;10.27;3.88;;;;;;;;;;5015869;28;20533;-65
2022/09/21 02:16:55;;;;;;;7.80;3.45;;;;;;;;;;5031343;28;20507;-65
2022/09/21 02:19:41;;;;;;;8.93;3.58;;;8.40;99.90;;;;;;5032997;28;20613;-65
2022/09/21 02:22:11;;;;;;;7.72;3.35;;;8.40;99.90;;;;;;4992395;28;20042;-65
2022/09/21 02:24:56;;;;;;;9.40;4.00;;;7.80;99.90;;;;;;5031960;28;20117;-65
2022/09/21 02:27:34;;;;;;;10.48;4.00;;;;;;;;;;5015116;28;20476;-65
2022/09/21 02:30:20;;;;;;;10.38;3.85;;;8.40;99.90;;;;;;5030465;28;20402;-65
2022/09/21 02:33:13;;;;;;;11.45;3.92;;;8.10;99.90;;;;;;5032957;28;20069;-64
2022/09/21 02:35:48;;;;;;;10.90;4.40;;;;;;;;;;5031183;28;20399;-65
2022/09/21 02:38:19;;;;;;;9.82;3.65;;;;;;;;;;5032333;28;20040;-66
2022/09/21 02:40:52;;;;;;;10.85;3.58;;;;;;;;;;5031043;28;20198;-66
2022/09/21 02:43:24;;;;;;;11.05;3.88;;;8.10;99.90;;;;;;5015317;28;20054;-65
2022/09/21 02:45:56;;;;;;;8.73;3.75;;;;;;;;;;5014452;28;20049;-65
2022/09/21 02:48:43;;;;;;;10.00;3.92;;;;;;;;;;5032467;28;20041;-66
2022/09/21 02:51:15;;;;;;;9.88;4.10;;;;;;;;;;5032205;28;20081;-65
2022/09/21 02:53:42;;;;;;;9.13;3.80;;;8.10;99.90;;;;;;5032426;28;20099;-66
2022/09/21 02:56:10;;;;;;;10.68;4.30;;;8.20;99.90;;;;;;5032297;28;20033;-65
2022/09/21 02:58:43;;;;;;;9.60;4.47;;;;;;;;;;5032205;28;20064;-65
2022/09/21 03:01:11;;;;;;;8.27;3.95;;;8.60;99.90;;;;;;5032561;28;20069;-65
2022/09/21 03:03:38;;;;;;;9.07;4.57;;;;;;;;;;5032284;28;20060;-65
2022/09/21 03:06:04;;;;;;;10.00;4.30;;;8.40;99.90;;;;;;5032272;28;20048;-65
2022/09/21 03:08:30;;;;;;;13.05;5.82;;;;;;;;;;5031804;28;20045;-65
2022/09/21 03:10:56;;;;;;;10.10;4.78;;;;;;;;;;5032133;28;20042;-65
2022/09/21 03:13:23;;;;;;;11.48;4.90;;;;;;;;;;5031826;28;20463;-65
2022/09/21 03:15:48;;;;;;;16.60;5.68;;;8.60;99.90;;;;;;5031985;28;20116;-65
2022/09/21 03:18:14;;;;;;;11.75;5.05;;;8.30;99.90;;;;;;5031455;28;20120;-65
2022/09/21 03:20:46;;;;;;;9.50;4.50;;;;;;;;;;5031410;28;20075;-65
2022/09/21 03:23:12;;;;;;;8.75;4.25;;;;;;;;;;5026319;28;20131;-65
2022/09/21 03:25:39;;;;;;;10.93;5.00;;;;;;;;;;5032137;28;20403;-66
2022/09/21 03:28:05;;;;;;;10.50;4.90;;;;;;;;;;5031467;28;20037;-65
2022/09/21 03:30:31;;;;;;;9.82;4.20;;;;;;;;;;5031965;28;20049;-65
2022/09/21 03:32:57;;;;;;;12.45;4.72;;;8.10;99.90;;;;;;5031733;28;20041;-65
2022/09/21 03:35:27;;;;;;;10.82;4.60;;;;;;;;;;5014246;28;20575;-65
2022/09/21 03:37:54;;;;;;;10.85;4.32;;;8.20;99.90;;;;;;5030898;28;20041;-65
2022/09/21 03:40:20;;;;;;;10.10;4.40;;;8.10;99.90;;;;;;5031913;28;20120;-65
2022/09/21 03:42:45;;;;;;;10.48;4.82;;;7.60;99.90;;;;;;5031861;28;20412;-65
2022/09/21 03:45:12;;;;;;;13.77;5.15;;;;;;;;;;5031629;28;20128;-65
2022/09/21 03:47:39;;;;;;;10.48;4.40;;;;;;;;;;5031211;28;20041;-66
2022/09/21 03:50:06;;;;;;;11.57;4.32;;;8.20;99.90;;;;;;5031626;28;20099;-65
2022/09/21 03:52:32;;;;;;;13.55;4.40;;;7.90;99.90;;;;;;5031585;28;20116;-66
2022/09/21 03:54:57;;;;;;;11.60;4.88;;;8.00;99.90;;;;;;5031542;28;20194;-65
2022/09/21 03:57:23;;;;;;;13.23;5.18;;;8.20;99.90;;;;;;5031390;28;20585;-66
2022/09/21 03:59:49;;;;;;;12.48;4.30;;;8.10;99.90;;;;;;5031244;28;20037;-66
2022/09/21 04:02:15;;;;;;;12.18;4.40;;;8.60;99.90;;;;;;5031374;28;20160;-65
2022/09/21 04:04:41;;;;;;;11.73;4.72;;;7.50;99.90;;;;;;5013518;28;20494;-66
2022/09/21 04:07:07;;;;;;;13.07;4.65;;;8.00;99.90;;;;;;5030797;28;20132;-66
2022/09/21 04:09:35;;;;;;;11.70;4.82;;;7.90;99.90;;;;;;5031193;28;20103;-65
2022/09/21 04:12:01;;;;;;;8.98;4.53;;;8.10;99.90;;;;;;5031490;28;20044;-65
2022/09/21 04:14:27;;;;;;;17.88;5.82;;;8.50;99.90;;;;;;5030949;28;20033;-65
2022/09/21 04:16:53;;;;;;;11.75;4.65;;;8.60;99.90;;;;;;5030816;28;20045;-65
2022/09/21 04:19:21;;;;;;;13.15;4.80;;;7.60;99.90;;;;;;5030913;28;20510;-66
2022/09/21 04:21:46;;;;;;;12.52;5.43;;;8.00;99.90;;;;;;5030921;28;20077;-66
2022/09/21 04:24:12;;;;;;;13.25;5.45;;;7.40;99.90;;;;;;5029200;28;20119;-66
2022/09/21 04:26:39;;;;;;;13.07;4.80;;;8.60;99.90;;;;;;5029313;28;20407;-65
2022/09/21 04:29:05;;;;;;;10.88;5.00;;;7.90;99.90;;;;;;4992288;28;20438;-65
2022/09/21 04:31:33;;;;;;;14.38;6.45;;;7.90;99.90;;;;;;5028424;28;20495;-65
2022/09/21 04:33:58;;;;;;;9.63;5.03;;;7.90;99.90;;;;;;5024314;28;20153;-65
2022/09/21 04:36:27;;;;;;;9.20;4.50;;;7.70;99.90;;;;;;5013018;28;20518;-66
2022/09/21 04:38:54;;;;;;;10.05;4.35;;;7.60;99.90;;;;;;5002172;28;20077;-65
2022/09/21 04:41:19;;;;;;;10.00;5.32;;;7.60;99.90;;;;;;5003910;28;20056;-65
2022/09/21 04:43:46;;;;;;;8.90;4.30;;;;;;;;;;5014008;28;20038;-64
2022/09/21 04:46:14;;;;;;;10.93;4.85;;;7.70;99.90;;;;;;5010588;28;20112;-64
2022/09/21 04:48:40;;;;;;;11.20;4.60;;;;;;;;;;5014493;28;20062;-64
2022/09/21 04:51:07;;;;;;;10.77;4.57;;;;;;;;;;5013254;28;20126;-64
2022/09/21 04:53:37;;;;;;;9.75;4.55;;;;;;;;;;5014609;28;20038;-64
2022/09/21 04:56:04;;;;;;;11.73;5.43;;;;;;;;;;5021153;28;20033;-65
2022/09/21 04:58:30;;;;;;;15.25;5.00;;;7.60;99.90;;;;;;5007711;28;20703;-64
2022/09/21 05:00:56;;;;;;;9.65;5.00;;;7.60;99.90;;;;;;5021777;28;20033;-64
2022/09/21 05:03:23;;;;;;;13.15;5.50;;;;;;;;;;5012394;28;20543;-64
2022/09/21 05:05:53;;;;;;;12.05;5.47;;;;;;;;;;5014440;28;20512;-64
2022/09/21 05:11:05;;;;;;;11.77;5.47;;;;;;;;;;5029996;28;20045;-65
2022/09/21 05:13:31;;;;;;;14.98;5.90;;;7.80;99.90;;;;;;5017541;28;20407;-64
2022/09/21 05:15:56;;;;;;;12.38;5.43;;;8.10;99.90;;;;;;5024916;28;20049;-64
2022/09/21 05:18:22;;;;;;;12.85;5.03;;;7.80;99.90;;;;;;5021268;28;20046;-64
2022/09/21 05:20:55;;;;;;;13.52;5.65;;;8.00;99.90;;;;;;5020924;28;20563;-64
2022/09/21 05:23:22;;;;;;;9.70;5.75;;;7.50;99.90;;;;;;5028393;28;20041;-65
2022/09/21 05:25:48;;;;;;;11.63;5.55;;;7.20;99.90;;;;;;5024821;28;20045;-64
2022/09/21 05:28:15;;;;;;;13.70;5.63;;;7.60;99.90;;;;;;5029249;28;20073;-64
2022/09/21 05:30:43;;;;;;;13.10;4.88;;;7.20;99.90;;;;;;4999079;28;20038;-64
2022/09/21 05:33:15;;;;;;;13.57;4.85;;;7.30;99.90;;;;;;5021699;28;20156;-64
2022/09/21 05:36:19;;;;;;;12.07;4.55;;;7.10;99.90;;;;;;5014892;28;20500;-64
2022/09/21 05:38:45;;;;;;;11.98;4.47;;;7.20;99.90;;;;;;5026121;28;20121;-64
2022/09/21 05:41:11;;;;;;;11.38;4.28;;;7.40;99.90;;;;;;5006142;28;20123;-64
2022/09/21 05:43:37;;;;;;;6.45;3.05;;;;;;;;;;5030654;28;20543;-63
2022/09/21 05:46:15;;;;;;;6.15;2.75;;;7.50;99.90;;;;;;5031896;28;20068;-64
2022/09/21 05:48:45;;;;;;;6.20;3.30;;;;;;;;;;5030742;28;20251;-65
2022/09/21 05:51:28;;;;;;;9.45;3.13;;;7.40;99.90;;;;;;5028863;28;20049;-64
2022/09/21 05:54:03;;;;;;;5.95;2.80;;;7.20;99.90;;;;;;5028446;28;20403;-64
2022/09/21 05:56:52;;;;;;;6.95;2.75;;;7.40;99.90;;;;;;5048108;22;20040;-64
2022/09/21 05:59:43;;;;;;;8.65;3.05;;;7.20;99.90;;;;;;5029691;28;20040;-64
2022/09/21 06:02:43;;;;;;;6.03;2.63;;;7.40;99.90;;;;;;5034612;28;20081;-64
2022/09/21 06:05:11;;;;;;;6.45;3.05;;;7.30;99.90;;;;;;5023571;28;20133;-64
2022/09/21 06:07:37;;;;;;;6.53;3.00;;;7.20;99.90;;;;;;5028698;28;20069;-64
2022/09/21 06:10:03;;;;;;;6.70;2.65;;;7.90;99.90;;;;;;5017139;28;20037;-64
2022/09/21 06:12:28;;;;;;;6.25;2.40;;;6.90;99.90;;;;;;5018840;28;20485;-64
2022/09/21 06:14:55;;;;;;;4.80;2.20;;;7.30;99.90;;;;;;5022264;28;20121;-64
2022/09/21 06:17:21;;;;;;;4.53;2.00;;;7.20;99.90;;;;;;5014041;28;20508;-64
2022/09/21 06:19:47;;;;;;;4.78;1.88;;;6.80;99.90;;;;;;5018434;28;20068;-64
2022/09/21 06:22:13;;;;;;;5.85;1.92;;;6.80;99.90;;;;;;5017627;28;20434;-64
2022/09/21 06:24:38;;;;;;;5.60;2.00;;;7.20;99.90;;;;;;5016616;28;20065;-64
2022/09/21 06:27:04;;;;;;;5.82;1.90;;;7.30;99.90;;;;;;5030855;28;20037;-64
2022/09/21 06:29:30;;;;;;;4.75;2.10;;;7.50;99.90;;;;;;5035248;28;20041;-64
2022/09/21 06:31:55;;;;;;;5.80;2.10;;;7.10;99.90;;;;;;5021609;28;20100;-64
2022/09/21 06:34:21;;;;;;;5.57;2.00;;;7.50;99.90;;;;;;5031566;28;20049;-64
2022/09/21 06:36:46;;;;;;;5.38;1.90;;;6.90;99.90;;;;;;5026571;28;20076;-64
2022/09/21 06:39:12;;;;;;;5.15;1.92;;;7.20;99.90;;;;;;5023346;28;20026;-64
2022/09/21 06:41:38;;;;;;;7.00;3.00;;;;;;;;;;4998700;28;20049;-64
2022/09/21 06:44:04;;;;;;;4.78;2.15;;;7.60;99.90;;;;;;5010445;28;20074;-64
2022/09/21 06:46:29;;;;;;;5.13;1.95;;;7.20;99.90;;;;;;4999409;28;20144;-64
2022/09/21 06:48:55;;;;;;;9.23;2.25;;;7.40;99.90;;;;;;5010011;28;20034;-64
2022/09/21 06:51:22;;;;;;;5.10;1.90;;;6.90;99.90;;;;;;5016850;28;20500;-64
2022/09/21 06:53:52;;;;;;;6.25;2.47;;;7.40;99.90;;;;;;5015880;28;20056;-64
2022/09/21 06:56:18;;;;;;;7.80;3.45;;;7.40;99.90;;;;;;5021222;28;20065;-63
2022/09/21 06:58:46;;;;;;;9.40;4.20;;;7.60;99.90;;;;;;5018038;28;20439;-64
2022/09/21 07:01:14;;;;;;;7.18;3.85;;;;;;;;;;4963742;28;20332;-66
2022/09/21 07:03:41;;;;;;;8.07;3.80;;;;;;;;;;4892495;28;20445;-66
2022/09/21 07:06:10;;;;;;;10.98;3.55;;;8.60;99.90;;;;;;5010329;28;20504;-65
2022/09/21 07:08:40;;;;;;;8.52;3.08;;;;;;;;;;4971857;28;20288;-66
2022/09/21 07:11:09;;;;;;;7.10;2.90;;;;;;;;;;4899600;28;20555;-66
2022/09/21 07:13:36;;;;;;;7.25;3.55;;;9.00;99.90;;;;;;4971854;28;20041;-65
2022/09/21 07:16:06;;;;;;;9.27;3.65;;;8.50;99.90;;;;;;5030941;28;20041;-65
2022/09/21 07:18:37;;;;;;;8.18;3.92;;;9.40;99.90;;;;;;5016158;28;20069;-66
2022/09/21 07:21:08;;;;;;;10.50;4.90;;;9.20;99.90;;;;;;5024110;28;20041;-65
2022/09/21 07:23:35;;;;;;;11.60;4.22;;;;;;;;;;5022134;28;20042;-65
2022/09/21 07:26:06;;;;;;;11.02;4.28;;;;;;;;;;5012975;28;20544;-65
2022/09/21 07:28:32;;;;;;;11.35;3.90;;;9.50;99.90;;;;;;5024570;28;20181;-65
2022/09/21 07:31:04;;;;;;;14.48;4.28;;;9.70;99.90;;;;;;4987810;28;20103;-66
2022/09/21 07:33:39;;;;;;;10.30;3.90;;;10.00;99.90;;;;;;4993637;28;20037;-65
2022/09/21 07:36:09;;;;;;;10.10;3.42;;;10.60;99.90;;;;;;4999062;28;20030;-65
2022/09/21 07:38:44;;;;;;;9.65;3.45;;;;;;;;;;4998638;28;20061;-65
2022/09/21 07:41:12;;;;;;;8.18;2.78;;;10.80;99.90;;;;;;5018647;28;20037;-65
2022/09/21 07:43:39;;;;;;;7.60;2.60;;;10.90;99.90;;;;;;5020754;28;20066;-66
2022/09/21 07:46:10;;;;;;;9.10;2.72;;;11.10;99.90;;;;;;5017891;28;20037;-66
2022/09/21 07:48:36;;;;;;;8.23;2.90;;;11.30;99.90;;;;;;5001313;28;20046;-64
2022/09/21 07:51:06;;;;;;;9.05;2.03;;;;;;;;;;4967170;28;20088;-65
2022/09/21 07:53:39;;;;;;;7.43;2.05;;;11.70;99.90;;;;;;4982220;28;20049;-64
2022/09/21 07:56:14;;;;;;;11.20;2.08;;;11.90;99.90;;;;;;5021634;28;20351;-65
2022/09/21 08:01:27;;;;;;;10.47;1.90;;;;;;;;;;4966177;28;20669;-66
2022/09/21 08:03:55;;;;;;;6.72;2.15;;;12.20;99.90;;;;;;4960883;28;20042;-67
2022/09/21 08:06:23;;;;;;;9.32;4.50;;;12.40;99.90;;;;;;4983441;28;20121;-66
2022/09/21 08:08:50;;;;;;;9.50;2.33;;;12.20;99.90;;;;;;5008591;28;20137;-66
2022/09/21 08:11:21;;;;;;;8.32;2.03;;;12.90;99.90;;;;;;5015915;28;20046;-66
2022/09/21 08:13:51;;;;;;;7.93;1.80;;;12.50;99.90;;;;;;5013266;28;20061;-66
2022/09/21 08:16:17;;;;;;;8.98;2.40;;;12.50;99.90;;;;;;5012707;28;20547;-65
2022/09/21 08:18:43;;;;;;;6.25;1.52;;;12.40;99.90;;;;;;5002712;28;20069;-66
2022/09/21 08:21:10;;;;;;;7.68;1.88;;;12.30;99.90;;;;;;5021284;28;20038;-66
2022/09/21 08:23:41;;;;;;;7.28;1.85;;;12.70;99.90;;;;;;5013882;28;20531;-64
2022/09/21 08:26:08;;;;;;;7.70;1.50;;;;;;;;;;4998673;28;20053;-66
2022/09/21 08:28:37;;;;;;;9.68;2.08;;;;;;;;;;4971723;23;20245;-80
2022/09/21 08:31:09;;;;;;;8.38;1.42;;;12.90;99.90;;;;;;4946470;28;20042;-81
2022/09/21 08:34:09;;;;;;;6.68;1.40;;;13.60;99.90;;;;;;5014636;28;20040;-82
2022/09/21 08:36:41;;;;;;;8.88;1.70;;;13.20;99.90;;;;;;4937059;28;20569;-81
2022/09/21 08:39:08;;;;;;;5.30;1.23;;;13.40;99.90;;;;;;4994935;28;20048;-81
2022/09/21 08:42:04;;;;;;;8.02;1.40;;;13.30;99.90;;;;;;4991773;28;20658;-82
2022/09/21 08:44:41;;;;;;;7.30;1.42;;;13.80;99.90;;;;;;4990922;28;20046;-81
2022/09/21 08:47:20;;;;;;;5.63;1.20;;;13.50;99.90;;;;;;4988187;28;20092;-81
2022/09/21 08:49:54;;;;;;;11.10;1.73;;;12.90;99.90;;;;;;5005119;28;20491;-82
2022/09/21 08:52:23;;;;;;;7.40;1.30;;;13.40;99.90;;;;;;4994756;28;20507;-80
2022/09/21 08:55:04;;;;;;;4.65;1.30;;;13.60;99.90;;;;;;4999405;28;20092;-82
2022/09/21 08:57:32;;;;;;;5.82;1.25;;;13.80;99.90;;;;;;5004167;28;20513;-82
2022/09/21 09:00:00;;;;;;;8.02;1.35;;;13.90;99.90;;;;;;4993748;28;20117;-81
2022/09/21 09:03:01;;;;;;;5.63;1.35;;;13.60;99.90;;;;;;4998540;28;20057;-81
2022/09/21 09:05:29;;;;;;;5.20;1.38;;;13.90;99.90;;;;;;4991162;28;20093;-81
2022/09/21 09:08:11;;;;;;;4.70;1.20;;;13.60;99.90;;;;;;4994787;28;20046;-80
2022/09/21 09:10:39;;;;;;;5.22;1.38;;;14.10;99.90;;;;;;4995284;28;20132;-81
2022/09/21 09:13:11;;;;;;;6.50;1.50;;;14.40;99.90;;;;;;4936974;28;20303;-81
2022/09/21 09:15:47;;;;;;;6.95;2.17;;;14.10;99.90;;;;;;4992777;28;20034;-80
2022/09/21 09:18:16;;;;;;;8.85;1.60;;;;;;;;;;4992069;28;20682;-81
2022/09/21 09:20:51;;;;;;;5.63;1.30;;;14.70;99.90;;;;;;4991267;28;20038;-80
2022/09/21 09:24:02;;;;;;;7.78;1.52;;;14.10;99.90;;;;;;5009447;28;20044;-80
2022/09/21 09:26:46;;;;;;;4.95;1.27;;;14.90;99.90;;;;;;4924810;29;20048;-83
2022/09/21 09:29:48;;;;;;;6.47;1.60;;;14.30;99.90;;;;;;4922485;29;20054;-82
2022/09/21 09:32:16;;;;;;;5.70;1.45;;;14.40;99.90;;;;;;4979633;28;20054;-82
2022/09/21 09:35:00;;;;;;;6.20;1.60;;;14.70;99.90;;;;;;5005846;28;20045;-80
2022/09/21 09:37:32;;;;;;;3.70;1.08;;;14.70;99.90;;;;;;5013855;28;20050;-81
2022/09/21 09:40:00;;;;;;;5.80;1.58;;;14.60;99.90;;;;;;4994061;28;20042;-83
2022/09/21 09:42:26;;;;;;;8.10;1.70;;;;;;;;;;4989302;28;20060;-80
2022/09/21 09:45:32;;;;;;;8.27;1.42;;;15.40;99.90;;;;;;4932839;28;20054;-81
2022/09/21 09:48:21;;;;;;;8.02;1.90;;;14.80;99.90;;;;;;4993087;28;20038;-82
2022/09/21 09:50:48;;;;;;;7.75;1.60;;;15.50;99.90;;;;;;4974501;28;20129;-80
2022/09/21 09:53:17;;;;;;;6.18;1.30;;;16.00;99.90;;;;;;4981584;28;20037;-82
2022/09/21 09:55:55;;;;;;;5.35;1.55;;;16.00;99.90;;;;;;4980844;28;20035;-82
2022/09/21 09:58:47;;;;;;;7.38;1.40;;;15.50;99.90;;;;;;4952140;28;20042;-80
2022/09/21 10:01:58;;;;;;;10.68;7.13;;;16.40;99.90;;;;;;4916327;28;20354;-81
2022/09/21 10:05:06;;;;;;;6.07;1.55;;;15.80;99.90;;;;;;4966420;28;20138;-82
2022/09/21 10:07:37;;;;;;;8.13;1.92;;;16.40;99.90;;;;;;4997120;28;20042;-82
2022/09/21 10:11:08;;;;;;;6.28;1.80;;;16.10;99.90;;;;;;4969004;28;20057;-80
2022/09/21 10:13:45;;;;;;;8.02;1.40;;;16.60;99.90;;;;;;4987915;28;20084;-81
2022/09/21 10:16:17;;;;;;;4.35;1.08;;;16.30;99.90;;;;;;4988733;28;20038;-81
2022/09/21 10:18:55;;;;;;;7.72;1.60;;;17.10;99.90;;;;;;4994193;28;20030;-81
2022/09/21 10:21:57;;;;;;;5.50;1.00;;;16.80;99.90;;;;;;4962717;28;20323;-81
2022/09/21 10:24:53;;;;;;;7.57;1.15;;;17.10;99.90;;;;;;4985959;28;20034;-83
2022/09/21 10:27:32;;;;;;;3.58;1.00;;;16.40;99.90;;;;;;4997716;28;20307;-81
2022/09/21 10:29:58;;;;;;;4.07;0.90;;;16.90;99.90;;;;;;4988224;28;20121;-82
2022/09/21 10:32:26;;;;;;;5.50;1.20;;;17.10;99.90;;;;;;5027794;28;20066;-81
2022/09/21 10:35:45;;;;;;;5.47;1.20;;;17.10;99.90;;;;;;4976288;28;20321;-80
2022/09/21 10:38:44;;;;;;;7.05;1.20;;;17.10;99.90;;;;;;4940293;28;20030;-80
2022/09/21 10:41:13;;;;;;;3.15;0.98;;;17.10;99.90;;;;;;5009054;28;20080;-83
2022/09/21 10:47:14;;;;;;;6.07;1.38;;;16.90;99.90;;;;;;4875098;29;20307;-85
2022/09/21 10:49:46;;;;;;;6.53;1.00;;;17.00;99.90;;;;;;4920362;29;20126;-82
2022/09/21 10:52:12;;;;;;;4.80;1.38;;;16.40;99.90;;;;;;5011551;28;20054;-81
2022/09/21 10:54:40;;;;;;;4.50;1.10;;;16.90;99.90;;;;;;5015938;28;20109;-82
2022/09/21 10:57:09;;;;;;;4.80;0.90;;;16.50;99.90;;;;;;5008204;28;20380;-82
2022/09/21 10:59:36;;;;;;;4.72;0.90;;;16.30;99.90;;;;;;4970505;28;20865;-82
2022/09/21 11:02:28;;;;;;;4.60;1.00;;;16.70;99.90;;;;;;5017420;28;20042;-82
2022/09/21 11:05:26;;;;;;;5.82;1.02;;;16.70;99.90;;;;;;5016869;28;20048;-83
2022/09/21 11:08:17;;;;;;;4.72;1.40;;;16.70;99.90;;;;;;4983860;28;20104;-82
2022/09/21 11:11:00;;;;;;;3.55;1.00;;;16.80;99.90;;;;;;4988372;28;20530;-81
2022/09/21 11:13:43;;;;;;;5.18;0.90;;;16.70;99.90;;;;;;4999123;28;20038;-82
2022/09/21 11:16:20;;;;;;;6.50;0.80;;;16.80;99.90;;;;;;4999757;28;20046;-81
2022/09/21 11:18:55;;;;;;;3.90;1.00;;;16.80;99.90;;;;;;5017705;28;20091;-82
2022/09/21 11:21:59;;;;;;;;;;;;;;;;;;;;;
2022/09/21 11:24:35;;;;;;;4.68;0.90;;;16.90;99.90;;;;;;4996618;28;20050;-82
2022/09/21 11:27:05;;;;;;;4.20;0.95;;;17.10;99.90;;;;;;4990667;28;20125;-81
2022/09/21 11:29:48;;;;;;;4.93;0.82;;;17.30;99.90;;;;;;4994624;28;20092;-82
2022/09/21 11:32:17;;;;;;;4.43;1.10;;;17.50;99.90;;;;;;4974000;28;20451;-82
2022/09/21 11:35:18;;;;;;;2.63;0.90;;;17.30;99.90;;;;;;4994632;28;20067;-84
2022/09/21 11:37:50;;;;;;;4.97;1.25;;;17.90;99.90;;;;;;4996286;28;20049;-82
2022/09/21 11:40:22;;;;;;;3.38;0.75;;;17.30;99.90;;;;;;4942985;28;20042;-80
2022/09/21 11:43:07;;;;;;;3.83;1.05;;;18.10;99.90;;;;;;4951502;28;20061;-81
2022/09/21 11:46:00;;;;;;;6.03;1.40;;;17.90;99.90;;;;;;4996452;28;20088;-82
2022/09/21 11:48:58;;;;;;;3.42;0.73;;;17.70;99.90;;;;;;5010504;28;20423;-81
2022/09/21 11:51:43;;;;;;;3.45;0.75;;;18.10;99.90;;;;;;4997781;28;20042;-81
2022/09/21 11:54:37;;;;;;;5.15;1.10;;;18.20;99.90;;;;;;4994842;28;20093;-81
2022/09/21 11:57:24;;;;;;;3.13;0.77;;;18.70;99.90;;;;;;5077940;22;20056;-64
2022/09/21 12:00:15;;;;;;;7.82;1.23;;;18.40;99.90;;;;;;5012713;28;20188;-66
2022/09/21 12:02:51;;;;;;;3.92;0.88;;;19.00;99.90;;;;;;5009979;28;20146;-66
2022/09/21 12:05:26;;;;;;;6.30;1.30;;;19.50;99.90;;;;;;5010775;28;20438;-66
2022/09/21 12:08:08;;;;;;;5.55;1.10;;;19.40;99.90;;;;;;4998267;28;20164;-66
2022/09/21 12:10:52;;;;;;;2.95;1.00;;;19.30;99.90;;;;;;4991480;28;20049;-66
2022/09/21 12:13:29;;;;;;;4.05;1.00;;;19.70;99.90;;;;;;4997638;28;20041;-66
2022/09/21 12:16:18;;;;;;;5.03;1.00;;;20.40;99.90;;;;;;5001548;28;20057;-66
2022/09/21 12:18:47;;;;;;;4.32;1.20;;;20.50;99.90;;;;;;4992277;28;20284;-66
2022/09/21 12:21:35;;;;;;;4.97;0.98;;;20.80;99.90;;;;;;4985191;28;20092;-67
2022/09/21 12:29:11;;;;;;;5.97;1.27;;;21.30;99.90;;;;;;5001541;28;20053;-65
2022/09/21 12:31:46;;;;;;;3.38;0.90;;;21.90;99.90;;;;;;5009310;28;20074;-65
2022/09/21 12:34:20;;;;;;;9.15;3.58;;;21.40;99.90;;;;;;4987172;28;20113;-65
2022/09/21 12:37:00;;;;;;;4.17;1.00;;;21.80;99.90;;;;;;5003508;28;20045;-66
2022/09/21 12:39:55;;;;;;;5.25;1.27;;;22.70;99.90;;;;;;4984126;28;20304;-66
2022/09/21 12:42:33;;;;;;;4.60;1.50;;;24.50;99.90;;;;;;5005640;28;20428;-66
2022/09/21 12:45:12;;;;;;;4.70;1.10;;;27.40;99.90;;;;;;5006840;28;20038;-65
2022/09/21 12:47:46;;;;;;;3.70;1.00;;;30.40;99.90;;;;;;4993095;28;20128;-65
2022/09/21 12:50:30;;;;;;;3.13;0.82;;;32.00;99.90;;;;;;4989960;28;20616;-66
2022/09/21 12:52:56;;;;;;;2.63;0.90;;;33.60;99.90;;;;;;5007892;28;20100;-66
2022/09/21 12:55:27;;;;;;;4.70;1.05;;;35.20;99.90;;;;;;4970816;28;20051;-66
2022/09/21 12:58:21;;;;;;;4.45;1.38;;;36.00;99.90;;;;;;4986184;28;20278;-66
2022/09/21 13:03:48;;;;;;;4.22;1.35;;;36.40;99.90;;;;;;4988501;28;20038;-66
2022/09/21 13:06:29;;;;;;;4.15;1.10;;;36.90;99.90;;;;;;4962312;28;20043;-66
2022/09/21 13:08:59;;;;;;;2.92;1.05;;;37.60;99.90;;;;;;4969709;28;20122;-66
2022/09/21 13:11:26;;;;;;;3.80;1.00;;;37.90;99.90;;;;;;4971962;28;20047;-65
2022/09/21 13:13:59;;;;;;;3.22;0.90;;;38.50;99.90;;;;;;4965555;28;20038;-66
2022/09/21 13:16:34;;;;;;;3.42;1.00;;;39.00;99.90;;;;;;4970820;28;20043;-66
2022/09/21 13:19:03;;;;;;;4.50;1.55;;;39.30;99.90;;;;;;4962669;28;20042;-66
2022/09/21 13:21:32;;;;;;;3.38;1.00;;;39.10;99.90;;;;;;4965616;28;20054;-66
2022/09/21 13:24:03;;;;;;;3.22;0.82;;;39.60;99.90;;;;;;4976133;28;20100;-66
2022/09/21 13:26:38;;;;;;;5.13;1.00;;;40.00;99.90;;;;;;4969262;28;20133;-66
2022/09/21 13:29:26;;;;;;;5.82;1.35;;;40.10;99.90;;;;;;4963021;28;20384;-66
2022/09/21 13:31:56;;;;;;;3.85;1.23;;;38.90;99.90;;;;;;4938374;28;20067;-66
2022/09/21 13:34:28;;;;;;;4.40;1.10;;;35.90;99.90;;;;;;4973221;28;20053;-66
2022/09/21 13:37:19;;;;;;;4.95;1.00;;;33.40;99.90;;;;;;4953709;28;20080;-66
2022/09/21 13:40:31;;;;;;;4.25;1.30;;;31.70;99.90;;;;;;4947528;28;20193;-68
2022/09/21 13:42:52;;;;;;;5.22;1.10;;;31.70;99.90;;;;;;4888707;28;20061;-68
2022/09/21 13:45:18;;;;;;;4.18;1.00;;;33.60;99.90;;;;;;4971503;28;20039;-68
2022/09/21 13:47:56;;;;;;;3.33;1.10;;;34.90;99.90;;;;;;4978856;28;20057;-68
2022/09/21 13:50:42;;;;;;;3.38;0.90;;;34.20;99.90;;;;;;4964445;28;20437;-68
2022/09/21 13:53:26;;;;;;;3.95;1.10;;;33.10;99.90;;;;;;4955023;28;20034;-68
2022/09/21 13:56:19;;;;;;;4.30;1.10;;;33.50;99.90;;;;;;4963534;28;20043;-68
2022/09/21 13:58:50;;;;;;;2.85;0.90;;;35.20;99.90;;;;;;4963453;28;20050;-68
2022/09/21 14:01:46;;;;;;;17.17;15.02;;;36.90;99.90;;;;;;4955409;28;20074;-68
2022/09/21 14:04:32;;;;;;;5.13;1.92;;;38.40;99.90;;;;;;4949126;28;20471;-69
2022/09/21 14:07:04;;;;;;;5.47;1.35;;;40.00;99.90;;;;;;4947565;28;20385;-69